sensor_id;sensor_type;location;lat;lon;timestamp;P1;durP1;ratioP1;P2;durP2;ratioP2
58896;SDS011;44677;52.378;10.400;2024-03-29T00:00:39;1.20;;;1.10;;
58896;SDS011;44677;52.378;10.400;2024-03-29T00:03:05;2.80;;;1.30;;
58896;SDS011;44677;52.378;10.400;2024-03-29T00:05:32;1.10;;;0.60;;
58896;SDS011;44677;52.378;10.400;2024-03-29T00:08:00;2.70;;;1.00;;
58896;SDS011;44677;52.378;10.400;2024-03-29T00:10:26;3.20;;;1.10;;
58896;SDS011;44677;52.378;10.400;2024-03-29T00:12:52;1.20;;;1.00;;
58896;SDS011;44677;52.378;10.400;2024-03-29T00:15:17;1.30;;;1.00;;
58896;SDS011;44677;52.378;10.400;2024-03-29T00:17:43;0.90;;;0.90;;
58896;SDS011;44677;52.378;10.400;2024-03-29T00:20:08;1.50;;;0.90;;
58896;SDS011;44677;52.378;10.400;2024-03-29T00:22:34;2.70;;;1.00;;
58896;SDS011;44677;52.378;10.400;2024-03-29T00:25:00;1.00;;;0.70;;
58896;SDS011;44677;52.378;10.400;2024-03-29T00:27:25;1.50;;;1.10;;
58896;SDS011;44677;52.378;10.400;2024-03-29T00:29:53;2.90;;;0.90;;
58896;SDS011;44677;52.378;10.400;2024-03-29T00:32:19;1.40;;;0.90;;
58896;SDS011;44677;52.378;10.400;2024-03-29T00:34:45;1.50;;;0.80;;
58896;SDS011;44677;52.378;10.400;2024-03-29T00:37:11;1.70;;;0.70;;
58896;SDS011;44677;52.378;10.400;2024-03-29T00:39:37;1.00;;;0.90;;
58896;SDS011;44677;52.378;10.400;2024-03-29T00:42:03;2.70;;;1.00;;
58896;SDS011;44677;52.378;10.400;2024-03-29T00:44:34;2.50;;;0.90;;
58896;SDS011;44677;52.378;10.400;2024-03-29T00:47:03;0.60;;;0.60;;
58896;SDS011;44677;52.378;10.400;2024-03-29T00:49:29;2.70;;;1.10;;
58896;SDS011;44677;52.378;10.400;2024-03-29T00:51:55;1.10;;;0.90;;
58896;SDS011;44677;52.378;10.400;2024-03-29T00:54:21;0.70;;;0.60;;
58896;SDS011;44677;52.378;10.400;2024-03-29T00:56:48;1.00;;;0.90;;
58896;SDS011;44677;52.378;10.400;2024-03-29T00:59:14;2.50;;;0.90;;
58896;SDS011;44677;52.378;10.400;2024-03-29T01:01:40;1.50;;;0.70;;
58896;SDS011;44677;52.378;10.400;2024-03-29T01:04:05;1.10;;;1.10;;
58896;SDS011;44677;52.378;10.400;2024-03-29T01:06:31;1.60;;;0.80;;
58896;SDS011;44677;52.378;10.400;2024-03-29T01:08:57;5.00;;;0.80;;
58896;SDS011;44677;52.378;10.400;2024-03-29T01:11:22;1.10;;;0.80;;
58896;SDS011;44677;52.378;10.400;2024-03-29T01:13:48;0.90;;;0.90;;
58896;SDS011;44677;52.378;10.400;2024-03-29T01:16:14;1.20;;;0.70;;
58896;SDS011;44677;52.378;10.400;2024-03-29T01:18:39;1.10;;;0.90;;
58896;SDS011;44677;52.378;10.400;2024-03-29T01:21:06;1.10;;;0.90;;
58896;SDS011;44677;52.378;10.400;2024-03-29T01:23:32;0.90;;;0.80;;
58896;SDS011;44677;52.378;10.400;2024-03-29T01:25:57;1.50;;;0.90;;
58896;SDS011;44677;52.378;10.400;2024-03-29T01:28:23;1.90;;;1.10;;
58896;SDS011;44677;52.378;10.400;2024-03-29T01:30:54;1.20;;;1.00;;
58896;SDS011;44677;52.378;10.400;2024-03-29T01:33:20;2.20;;;0.90;;
58896;SDS011;44677;52.378;10.400;2024-03-29T01:35:46;1.40;;;0.80;;
58896;SDS011;44677;52.378;10.400;2024-03-29T01:38:12;0.70;;;0.70;;
58896;SDS011;44677;52.378;10.400;2024-03-29T01:40:39;1.50;;;1.00;;
58896;SDS011;44677;52.378;10.400;2024-03-29T01:43:05;2.50;;;0.90;;
58896;SDS011;44677;52.378;10.400;2024-03-29T01:45:30;1.50;;;1.00;;
58896;SDS011;44677;52.378;10.400;2024-03-29T01:47:56;2.90;;;0.90;;
58896;SDS011;44677;52.378;10.400;2024-03-29T01:50:22;1.30;;;0.90;;
58896;SDS011;44677;52.378;10.400;2024-03-29T01:52:48;1.20;;;1.00;;
58896;SDS011;44677;52.378;10.400;2024-03-29T01:55:14;3.60;;;0.70;;
58896;SDS011;44677;52.378;10.400;2024-03-29T01:57:40;1.30;;;0.70;;
58896;SDS011;44677;52.378;10.400;2024-03-29T02:00:06;0.80;;;0.80;;
58896;SDS011;44677;52.378;10.400;2024-03-29T02:02:33;2.20;;;1.20;;
58896;SDS011;44677;52.378;10.400;2024-03-29T02:04:59;1.40;;;1.00;;
58896;SDS011;44677;52.378;10.400;2024-03-29T02:07:24;2.40;;;0.90;;
58896;SDS011;44677;52.378;10.400;2024-03-29T02:09:50;1.70;;;0.90;;
58896;SDS011;44677;52.378;10.400;2024-03-29T02:12:16;2.20;;;0.90;;
58896;SDS011;44677;52.378;10.400;2024-03-29T02:14:41;1.80;;;0.90;;
58896;SDS011;44677;52.378;10.400;2024-03-29T02:17:08;1.90;;;0.70;;
58896;SDS011;44677;52.378;10.400;2024-03-29T02:19:34;1.20;;;0.70;;
58896;SDS011;44677;52.378;10.400;2024-03-29T02:21:59;1.20;;;0.70;;
58896;SDS011;44677;52.378;10.400;2024-03-29T02:24:26;2.20;;;0.80;;
58896;SDS011;44677;52.378;10.400;2024-03-29T02:26:52;2.00;;;1.00;;
58896;SDS011;44677;52.378;10.400;2024-03-29T02:29:20;1.80;;;1.10;;
58896;SDS011;44677;52.378;10.400;2024-03-29T02:31:45;3.60;;;0.90;;
58896;SDS011;44677;52.378;10.400;2024-03-29T02:34:11;2.50;;;0.90;;
58896;SDS011;44677;52.378;10.400;2024-03-29T02:36:36;1.40;;;0.80;;
58896;SDS011;44677;52.378;10.400;2024-03-29T02:39:03;3.60;;;1.00;;
58896;SDS011;44677;52.378;10.400;2024-03-29T02:41:28;1.30;;;0.70;;
58896;SDS011;44677;52.378;10.400;2024-03-29T02:43:55;0.80;;;0.50;;
58896;SDS011;44677;52.378;10.400;2024-03-29T02:46:21;1.40;;;0.80;;
58896;SDS011;44677;52.378;10.400;2024-03-29T02:48:47;3.90;;;0.90;;
58896;SDS011;44677;52.378;10.400;2024-03-29T02:51:12;1.40;;;1.10;;
58896;SDS011;44677;52.378;10.400;2024-03-29T02:53:38;3.20;;;1.00;;
58896;SDS011;44677;52.378;10.400;2024-03-29T02:56:04;3.50;;;0.80;;
58896;SDS011;44677;52.378;10.400;2024-03-29T02:58:32;1.70;;;0.90;;
58896;SDS011;44677;52.378;10.400;2024-03-29T03:03:30;1.40;;;0.80;;
58896;SDS011;44677;52.378;10.400;2024-03-29T03:05:55;0.60;;;0.60;;
58896;SDS011;44677;52.378;10.400;2024-03-29T03:08:21;0.80;;;0.80;;
58896;SDS011;44677;52.378;10.400;2024-03-29T03:11:05;2.40;;;1.00;;
58896;SDS011;44677;52.378;10.400;2024-03-29T03:13:31;2.20;;;1.00;;
58896;SDS011;44677;52.378;10.400;2024-03-29T03:15:57;1.80;;;0.80;;
58896;SDS011;44677;52.378;10.400;2024-03-29T03:18:22;1.50;;;0.80;;
58896;SDS011;44677;52.378;10.400;2024-03-29T03:20:51;1.70;;;1.50;;
58896;SDS011;44677;52.378;10.400;2024-03-29T03:23:18;4.00;;;1.30;;
58896;SDS011;44677;52.378;10.400;2024-03-29T03:25:43;0.80;;;0.70;;
58896;SDS011;44677;52.378;10.400;2024-03-29T03:28:09;1.00;;;0.60;;
58896;SDS011;44677;52.378;10.400;2024-03-29T03:30:41;3.90;;;1.00;;
58896;SDS011;44677;52.378;10.400;2024-03-29T03:33:06;2.00;;;1.10;;
58896;SDS011;44677;52.378;10.400;2024-03-29T03:35:32;1.20;;;0.90;;
58896;SDS011;44677;52.378;10.400;2024-03-29T03:37:57;2.90;;;0.90;;
58896;SDS011;44677;52.378;10.400;2024-03-29T03:40:23;4.00;;;1.00;;
58896;SDS011;44677;52.378;10.400;2024-03-29T03:42:49;3.90;;;1.20;;
58896;SDS011;44677;52.378;10.400;2024-03-29T03:45:14;2.20;;;0.80;;
58896;SDS011;44677;52.378;10.400;2024-03-29T03:47:40;2.00;;;0.90;;
58896;SDS011;44677;52.378;10.400;2024-03-29T03:50:06;1.70;;;0.80;;
58896;SDS011;44677;52.378;10.400;2024-03-29T03:52:32;2.30;;;0.90;;
58896;SDS011;44677;52.378;10.400;2024-03-29T03:54:57;1.20;;;0.80;;
58896;SDS011;44677;52.378;10.400;2024-03-29T03:57:23;2.90;;;0.70;;
58896;SDS011;44677;52.378;10.400;2024-03-29T03:59:51;2.80;;;0.80;;
58896;SDS011;44677;52.378;10.400;2024-03-29T04:02:17;1.80;;;0.80;;
58896;SDS011;44677;52.378;10.400;2024-03-29T04:04:43;4.00;;;1.10;;
58896;SDS011;44677;52.378;10.400;2024-03-29T04:07:12;2.60;;;0.60;;
58896;SDS011;44677;52.378;10.400;2024-03-29T04:09:38;2.10;;;0.80;;
58896;SDS011;44677;52.378;10.400;2024-03-29T04:12:03;1.90;;;0.90;;
58896;SDS011;44677;52.378;10.400;2024-03-29T04:14:29;2.10;;;0.90;;
58896;SDS011;44677;52.378;10.400;2024-03-29T04:16:55;2.30;;;1.00;;
58896;SDS011;44677;52.378;10.400;2024-03-29T04:19:20;3.00;;;1.10;;
58896;SDS011;44677;52.378;10.400;2024-03-29T04:21:46;2.20;;;0.90;;
58896;SDS011;44677;52.378;10.400;2024-03-29T04:24:11;1.50;;;0.90;;
58896;SDS011;44677;52.378;10.400;2024-03-29T04:26:37;4.70;;;0.90;;
58896;SDS011;44677;52.378;10.400;2024-03-29T04:29:03;1.40;;;0.90;;
58896;SDS011;44677;52.378;10.400;2024-03-29T04:31:29;2.40;;;1.30;;
58896;SDS011;44677;52.378;10.400;2024-03-29T04:33:55;1.80;;;1.30;;
58896;SDS011;44677;52.378;10.400;2024-03-29T04:36:20;3.00;;;1.10;;
58896;SDS011;44677;52.378;10.400;2024-03-29T04:38:46;4.70;;;1.30;;
58896;SDS011;44677;52.378;10.400;2024-03-29T04:41:12;4.60;;;1.30;;
58896;SDS011;44677;52.378;10.400;2024-03-29T04:43:39;5.60;;;1.30;;
58896;SDS011;44677;52.378;10.400;2024-03-29T04:46:09;4.30;;;1.40;;
58896;SDS011;44677;52.378;10.400;2024-03-29T04:48:39;5.10;;;2.20;;
58896;SDS011;44677;52.378;10.400;2024-03-29T04:51:07;7.90;;;1.40;;
58896;SDS011;44677;52.378;10.400;2024-03-29T04:53:37;1.50;;;1.30;;
58896;SDS011;44677;52.378;10.400;2024-03-29T04:56:03;2.80;;;1.10;;
58896;SDS011;44677;52.378;10.400;2024-03-29T04:58:29;3.80;;;1.40;;
58896;SDS011;44677;52.378;10.400;2024-03-29T05:00:55;2.20;;;1.30;;
58896;SDS011;44677;52.378;10.400;2024-03-29T05:03:21;3.90;;;1.10;;
58896;SDS011;44677;52.378;10.400;2024-03-29T05:05:48;2.80;;;1.00;;
58896;SDS011;44677;52.378;10.400;2024-03-29T05:08:15;1.80;;;1.00;;
58896;SDS011;44677;52.378;10.400;2024-03-29T05:10:40;3.20;;;1.30;;
58896;SDS011;44677;52.378;10.400;2024-03-29T05:13:06;4.10;;;1.20;;
58896;SDS011;44677;52.378;10.400;2024-03-29T05:15:32;3.30;;;0.90;;
58896;SDS011;44677;52.378;10.400;2024-03-29T05:17:58;3.70;;;1.00;;
58896;SDS011;44677;52.378;10.400;2024-03-29T05:20:24;1.80;;;1.00;;
58896;SDS011;44677;52.378;10.400;2024-03-29T05:22:49;2.80;;;1.20;;
58896;SDS011;44677;52.378;10.400;2024-03-29T05:25:15;2.20;;;0.80;;
58896;SDS011;44677;52.378;10.400;2024-03-29T05:27:41;1.90;;;1.00;;
58896;SDS011;44677;52.378;10.400;2024-03-29T05:30:06;2.10;;;0.80;;
58896;SDS011;44677;52.378;10.400;2024-03-29T05:32:34;1.70;;;0.80;;
58896;SDS011;44677;52.378;10.400;2024-03-29T05:35:00;2.80;;;0.80;;
58896;SDS011;44677;52.378;10.400;2024-03-29T05:37:26;1.40;;;0.70;;
58896;SDS011;44677;52.378;10.400;2024-03-29T05:39:52;5.10;;;1.20;;
58896;SDS011;44677;52.378;10.400;2024-03-29T05:42:29;4.70;;;1.00;;
58896;SDS011;44677;52.378;10.400;2024-03-29T05:44:55;1.60;;;1.00;;
58896;SDS011;44677;52.378;10.400;2024-03-29T05:47:21;2.20;;;0.80;;
58896;SDS011;44677;52.378;10.400;2024-03-29T05:49:47;2.20;;;0.80;;
58896;SDS011;44677;52.378;10.400;2024-03-29T05:52:13;3.50;;;0.90;;
58896;SDS011;44677;52.378;10.400;2024-03-29T05:54:42;2.00;;;0.70;;
58896;SDS011;44677;52.378;10.400;2024-03-29T05:57:08;4.00;;;1.30;;
58896;SDS011;44677;52.378;10.400;2024-03-29T05:59:34;2.10;;;0.70;;
58896;SDS011;44677;52.378;10.400;2024-03-29T06:02:00;3.40;;;0.90;;
58896;SDS011;44677;52.378;10.400;2024-03-29T06:04:25;0.90;;;0.60;;
58896;SDS011;44677;52.378;10.400;2024-03-29T06:09:28;0.90;;;0.70;;
58896;SDS011;44677;52.378;10.400;2024-03-29T06:11:54;2.40;;;0.80;;
58896;SDS011;44677;52.378;10.400;2024-03-29T06:14:21;3.60;;;0.70;;
58896;SDS011;44677;52.378;10.400;2024-03-29T06:17:06;0.60;;;0.60;;
58896;SDS011;44677;52.378;10.400;2024-03-29T06:19:54;2.10;;;0.80;;
58896;SDS011;44677;52.378;10.400;2024-03-29T06:22:22;1.80;;;0.90;;
58896;SDS011;44677;52.378;10.400;2024-03-29T06:24:49;1.50;;;0.70;;
58896;SDS011;44677;52.378;10.400;2024-03-29T06:27:18;1.50;;;0.80;;
58896;SDS011;44677;52.378;10.400;2024-03-29T06:29:45;2.40;;;0.80;;
58896;SDS011;44677;52.378;10.400;2024-03-29T06:32:11;4.00;;;0.80;;
58896;SDS011;44677;52.378;10.400;2024-03-29T06:34:37;2.40;;;1.00;;
58896;SDS011;44677;52.378;10.400;2024-03-29T06:37:03;2.40;;;0.70;;
58896;SDS011;44677;52.378;10.400;2024-03-29T06:39:28;1.30;;;0.60;;
58896;SDS011;44677;52.378;10.400;2024-03-29T06:41:54;1.60;;;0.70;;
58896;SDS011;44677;52.378;10.400;2024-03-29T06:44:20;2.20;;;0.80;;
58896;SDS011;44677;52.378;10.400;2024-03-29T06:46:46;3.00;;;0.60;;
58896;SDS011;44677;52.378;10.400;2024-03-29T06:49:11;0.50;;;0.50;;
58896;SDS011;44677;52.378;10.400;2024-03-29T06:51:38;1.20;;;0.90;;
58896;SDS011;44677;52.378;10.400;2024-03-29T06:54:05;5.10;;;1.30;;
58896;SDS011;44677;52.378;10.400;2024-03-29T06:56:31;1.30;;;1.00;;
58896;SDS011;44677;52.378;10.400;2024-03-29T06:58:57;2.10;;;0.90;;
58896;SDS011;44677;52.378;10.400;2024-03-29T07:01:23;1.20;;;0.70;;
58896;SDS011;44677;52.378;10.400;2024-03-29T07:03:49;1.20;;;0.90;;
58896;SDS011;44677;52.378;10.400;2024-03-29T07:06:14;1.40;;;0.70;;
58896;SDS011;44677;52.378;10.400;2024-03-29T07:08:40;0.90;;;0.80;;
58896;SDS011;44677;52.378;10.400;2024-03-29T07:11:05;1.40;;;1.00;;
58896;SDS011;44677;52.378;10.400;2024-03-29T07:13:31;1.80;;;1.00;;
58896;SDS011;44677;52.378;10.400;2024-03-29T07:15:59;1.30;;;0.90;;
58896;SDS011;44677;52.378;10.400;2024-03-29T07:18:25;1.80;;;1.10;;
58896;SDS011;44677;52.378;10.400;2024-03-29T07:20:51;1.10;;;0.80;;
58896;SDS011;44677;52.378;10.400;2024-03-29T07:23:17;1.90;;;1.00;;
58896;SDS011;44677;52.378;10.400;2024-03-29T07:25:57;3.10;;;1.20;;
58896;SDS011;44677;52.378;10.400;2024-03-29T07:28:23;3.40;;;1.10;;
58896;SDS011;44677;52.378;10.400;2024-03-29T07:30:49;2.50;;;0.70;;
58896;SDS011;44677;52.378;10.400;2024-03-29T07:33:18;1.90;;;1.00;;
58896;SDS011;44677;52.378;10.400;2024-03-29T07:35:46;1.80;;;0.80;;
58896;SDS011;44677;52.378;10.400;2024-03-29T07:38:13;1.00;;;1.00;;
58896;SDS011;44677;52.378;10.400;2024-03-29T07:40:42;1.30;;;1.10;;
58896;SDS011;44677;52.378;10.400;2024-03-29T07:43:08;1.80;;;1.20;;
58896;SDS011;44677;52.378;10.400;2024-03-29T07:45:34;2.40;;;1.20;;
58896;SDS011;44677;52.378;10.400;2024-03-29T07:47:59;2.30;;;1.00;;
58896;SDS011;44677;52.378;10.400;2024-03-29T07:50:25;2.20;;;0.90;;
58896;SDS011;44677;52.378;10.400;2024-03-29T07:52:51;1.10;;;0.70;;
58896;SDS011;44677;52.378;10.400;2024-03-29T07:55:16;1.70;;;1.10;;
58896;SDS011;44677;52.378;10.400;2024-03-29T07:57:43;2.10;;;1.10;;
58896;SDS011;44677;52.378;10.400;2024-03-29T08:00:08;1.90;;;1.30;;
58896;SDS011;44677;52.378;10.400;2024-03-29T08:02:35;3.20;;;1.60;;
58896;SDS011;44677;52.378;10.400;2024-03-29T08:05:01;1.70;;;1.30;;
58896;SDS011;44677;52.378;10.400;2024-03-29T08:07:26;5.30;;;1.50;;
58896;SDS011;44677;52.378;10.400;2024-03-29T08:09:52;3.20;;;1.80;;
58896;SDS011;44677;52.378;10.400;2024-03-29T08:12:17;4.00;;;1.70;;
58896;SDS011;44677;52.378;10.400;2024-03-29T08:14:43;3.50;;;1.70;;
58896;SDS011;44677;52.378;10.400;2024-03-29T08:17:09;2.00;;;1.50;;
58896;SDS011;44677;52.378;10.400;2024-03-29T08:19:35;2.80;;;1.70;;
58896;SDS011;44677;52.378;10.400;2024-03-29T08:22:01;2.60;;;1.70;;
58896;SDS011;44677;52.378;10.400;2024-03-29T08:24:30;6.90;;;1.90;;
58896;SDS011;44677;52.378;10.400;2024-03-29T08:26:56;3.20;;;1.50;;
58896;SDS011;44677;52.378;10.400;2024-03-29T08:29:24;3.00;;;1.50;;
58896;SDS011;44677;52.378;10.400;2024-03-29T08:31:49;3.10;;;1.20;;
58896;SDS011;44677;52.378;10.400;2024-03-29T08:34:15;2.90;;;1.60;;
58896;SDS011;44677;52.378;10.400;2024-03-29T08:36:40;1.30;;;1.10;;
58896;SDS011;44677;52.378;10.400;2024-03-29T08:39:06;3.70;;;1.40;;
58896;SDS011;44677;52.378;10.400;2024-03-29T08:41:32;3.00;;;1.40;;
58896;SDS011;44677;52.378;10.400;2024-03-29T08:43:57;1.80;;;1.20;;
58896;SDS011;44677;52.378;10.400;2024-03-29T08:46:23;1.50;;;1.20;;
58896;SDS011;44677;52.378;10.400;2024-03-29T08:48:48;4.00;;;1.20;;
58896;SDS011;44677;52.378;10.400;2024-03-29T08:51:14;1.60;;;0.90;;
58896;SDS011;44677;52.378;10.400;2024-03-29T08:53:41;1.80;;;1.00;;
58896;SDS011;44677;52.378;10.400;2024-03-29T08:56:06;1.30;;;0.80;;
58896;SDS011;44677;52.378;10.400;2024-03-29T08:58:32;1.30;;;0.90;;
58896;SDS011;44677;52.378;10.400;2024-03-29T09:00:58;1.20;;;1.10;;
58896;SDS011;44677;52.378;10.400;2024-03-29T09:03:23;1.70;;;0.80;;
58896;SDS011;44677;52.378;10.400;2024-03-29T09:05:49;4.10;;;1.10;;
58896;SDS011;44677;52.378;10.400;2024-03-29T09:08:16;1.20;;;0.90;;
58896;SDS011;44677;52.378;10.400;2024-03-29T09:10:42;1.20;;;0.90;;
58896;SDS011;44677;52.378;10.400;2024-03-29T09:13:08;0.80;;;0.70;;
58896;SDS011;44677;52.378;10.400;2024-03-29T09:15:34;1.30;;;0.60;;
58896;SDS011;44677;52.378;10.400;2024-03-29T09:18:00;0.90;;;0.50;;
58896;SDS011;44677;52.378;10.400;2024-03-29T09:20:28;0.70;;;0.70;;
58896;SDS011;44677;52.378;10.400;2024-03-29T09:22:53;1.50;;;1.00;;
58896;SDS011;44677;52.378;10.400;2024-03-29T09:25:19;1.40;;;0.80;;
58896;SDS011;44677;52.378;10.400;2024-03-29T09:27:45;0.90;;;0.90;;
58896;SDS011;44677;52.378;10.400;2024-03-29T09:30:11;0.80;;;0.80;;
58896;SDS011;44677;52.378;10.400;2024-03-29T09:32:37;0.80;;;0.80;;
58896;SDS011;44677;52.378;10.400;2024-03-29T09:35:03;1.10;;;1.00;;
58896;SDS011;44677;52.378;10.400;2024-03-29T09:37:29;2.80;;;1.00;;
58896;SDS011;44677;52.378;10.400;2024-03-29T09:39:55;1.00;;;0.60;;
58896;SDS011;44677;52.378;10.400;2024-03-29T09:42:21;1.10;;;0.50;;
58896;SDS011;44677;52.378;10.400;2024-03-29T09:44:50;0.70;;;0.70;;
58896;SDS011;44677;52.378;10.400;2024-03-29T09:47:17;1.90;;;1.20;;
58896;SDS011;44677;52.378;10.400;2024-03-29T09:52:13;0.90;;;0.80;;
58896;SDS011;44677;52.378;10.400;2024-03-29T09:54:38;1.10;;;0.50;;
58896;SDS011;44677;52.378;10.400;2024-03-29T09:57:04;2.10;;;0.80;;
58896;SDS011;44677;52.378;10.400;2024-03-29T09:59:30;0.90;;;0.60;;
58896;SDS011;44677;52.378;10.400;2024-03-29T10:01:56;1.10;;;0.60;;
58896;SDS011;44677;52.378;10.400;2024-03-29T10:04:23;1.20;;;0.80;;
58896;SDS011;44677;52.378;10.400;2024-03-29T10:06:49;0.60;;;0.60;;
58896;SDS011;44677;52.378;10.400;2024-03-29T10:09:19;0.80;;;0.80;;
58896;SDS011;44677;52.378;10.400;2024-03-29T10:11:46;1.20;;;0.80;;
58896;SDS011;44677;52.378;10.400;2024-03-29T10:14:12;0.80;;;0.60;;
58896;SDS011;44677;52.378;10.400;2024-03-29T10:16:38;0.80;;;0.80;;
58896;SDS011;44677;52.378;10.400;2024-03-29T10:19:04;0.60;;;0.60;;
58896;SDS011;44677;52.378;10.400;2024-03-29T10:21:31;0.60;;;0.60;;
58896;SDS011;44677;52.378;10.400;2024-03-29T10:23:57;0.90;;;0.60;;
58896;SDS011;44677;52.378;10.400;2024-03-29T10:26:23;0.60;;;0.50;;
58896;SDS011;44677;52.378;10.400;2024-03-29T10:28:48;1.00;;;0.90;;
58896;SDS011;44677;52.378;10.400;2024-03-29T10:31:17;2.10;;;1.30;;
58896;SDS011;44677;52.378;10.400;2024-03-29T10:33:43;0.70;;;0.70;;
58896;SDS011;44677;52.378;10.400;2024-03-29T10:36:09;0.70;;;0.70;;
58896;SDS011;44677;52.378;10.400;2024-03-29T10:38:37;1.50;;;1.00;;
58896;SDS011;44677;52.378;10.400;2024-03-29T10:41:04;0.70;;;0.70;;
58896;SDS011;44677;52.378;10.400;2024-03-29T10:43:32;1.00;;;0.80;;
58896;SDS011;44677;52.378;10.400;2024-03-29T10:45:59;1.20;;;1.00;;
58896;SDS011;44677;52.378;10.400;2024-03-29T10:48:28;0.50;;;0.50;;
58896;SDS011;44677;52.378;10.400;2024-03-29T10:50:57;1.10;;;0.70;;
58896;SDS011;44677;52.378;10.400;2024-03-29T10:53:23;0.90;;;0.50;;
58896;SDS011;44677;52.378;10.400;2024-03-29T10:56:02;0.90;;;0.50;;
58896;SDS011;44677;52.378;10.400;2024-03-29T10:58:33;1.40;;;0.60;;
58896;SDS011;44677;52.378;10.400;2024-03-29T11:01:00;1.70;;;0.50;;
58896;SDS011;44677;52.378;10.400;2024-03-29T11:03:32;0.60;;;0.60;;
58896;SDS011;44677;52.378;10.400;2024-03-29T11:06:04;0.70;;;0.70;;
58896;SDS011;44677;52.378;10.400;2024-03-29T11:08:34;0.70;;;0.60;;
58896;SDS011;44677;52.378;10.400;2024-03-29T11:11:04;1.30;;;0.90;;
58896;SDS011;44677;52.378;10.400;2024-03-29T11:13:53;0.90;;;0.70;;
58896;SDS011;44677;52.378;10.400;2024-03-29T11:16:22;0.60;;;0.60;;
58896;SDS011;44677;52.378;10.400;2024-03-29T11:18:49;1.00;;;0.70;;
58896;SDS011;44677;52.378;10.400;2024-03-29T11:21:16;0.40;;;0.40;;
58896;SDS011;44677;52.378;10.400;2024-03-29T11:23:49;0.70;;;0.60;;
58896;SDS011;44677;52.378;10.400;2024-03-29T11:26:15;0.60;;;0.60;;
58896;SDS011;44677;52.378;10.400;2024-03-29T11:31:13;0.90;;;0.50;;
58896;SDS011;44677;52.378;10.400;2024-03-29T11:38:38;1.80;;;0.70;;
58896;SDS011;44677;52.378;10.400;2024-03-29T11:41:10;1.50;;;0.70;;
58896;SDS011;44677;52.378;10.400;2024-03-29T11:43:39;0.60;;;0.60;;
58896;SDS011;44677;52.378;10.400;2024-03-29T11:46:08;1.60;;;0.90;;
58896;SDS011;44677;52.378;10.400;2024-03-29T11:48:34;0.70;;;0.70;;
58896;SDS011;44677;52.378;10.400;2024-03-29T11:51:01;1.50;;;0.70;;
58896;SDS011;44677;52.378;10.400;2024-03-29T11:53:31;2.00;;;1.00;;
58896;SDS011;44677;52.378;10.400;2024-03-29T11:56:01;1.40;;;0.60;;
58896;SDS011;44677;52.378;10.400;2024-03-29T11:58:29;1.80;;;0.70;;
58896;SDS011;44677;52.378;10.400;2024-03-29T12:00:56;1.20;;;0.80;;
58896;SDS011;44677;52.378;10.400;2024-03-29T12:03:23;0.90;;;0.70;;
58896;SDS011;44677;52.378;10.400;2024-03-29T12:05:50;0.90;;;0.80;;
58896;SDS011;44677;52.378;10.400;2024-03-29T12:08:19;0.80;;;0.80;;
58896;SDS011;44677;52.378;10.400;2024-03-29T12:10:45;1.10;;;0.80;;
58896;SDS011;44677;52.378;10.400;2024-03-29T12:13:11;2.00;;;0.80;;
58896;SDS011;44677;52.378;10.400;2024-03-29T12:15:37;1.70;;;0.70;;
58896;SDS011;44677;52.378;10.400;2024-03-29T12:18:05;1.50;;;0.70;;
58896;SDS011;44677;52.378;10.400;2024-03-29T12:20:31;3.20;;;0.70;;
58896;SDS011;44677;52.378;10.400;2024-03-29T12:25:27;0.80;;;0.70;;
58896;SDS011;44677;52.378;10.400;2024-03-29T12:30:19;2.10;;;0.60;;
58896;SDS011;44677;52.378;10.400;2024-03-29T12:32:45;1.30;;;0.80;;
58896;SDS011;44677;52.378;10.400;2024-03-29T12:35:12;1.00;;;0.60;;
58896;SDS011;44677;52.378;10.400;2024-03-29T12:37:50;1.90;;;0.60;;
58896;SDS011;44677;52.378;10.400;2024-03-29T12:40:17;0.90;;;0.70;;
58896;SDS011;44677;52.378;10.400;2024-03-29T12:42:49;1.10;;;0.70;;
58896;SDS011;44677;52.378;10.400;2024-03-29T12:45:16;2.50;;;1.00;;
58896;SDS011;44677;52.378;10.400;2024-03-29T12:47:43;2.60;;;0.80;;
58896;SDS011;44677;52.378;10.400;2024-03-29T12:50:11;0.70;;;0.60;;
58896;SDS011;44677;52.378;10.400;2024-03-29T12:52:41;0.70;;;0.70;;
58896;SDS011;44677;52.378;10.400;2024-03-29T12:55:08;1.70;;;0.60;;
58896;SDS011;44677;52.378;10.400;2024-03-29T12:57:35;2.30;;;1.10;;
58896;SDS011;44677;52.378;10.400;2024-03-29T13:00:01;1.40;;;0.70;;
58896;SDS011;44677;52.378;10.400;2024-03-29T13:02:28;1.20;;;0.70;;
58896;SDS011;44677;52.378;10.400;2024-03-29T13:04:54;0.50;;;0.50;;
58896;SDS011;44677;52.378;10.400;2024-03-29T13:07:20;0.70;;;0.70;;
58896;SDS011;44677;52.378;10.400;2024-03-29T13:09:46;0.90;;;0.70;;
58896;SDS011;44677;52.378;10.400;2024-03-29T13:12:11;0.80;;;0.60;;
58896;SDS011;44677;52.378;10.400;2024-03-29T13:14:37;0.80;;;0.50;;
58896;SDS011;44677;52.378;10.400;2024-03-29T13:17:03;1.20;;;0.70;;
58896;SDS011;44677;52.378;10.400;2024-03-29T13:19:28;1.80;;;0.60;;
58896;SDS011;44677;52.378;10.400;2024-03-29T13:21:54;1.20;;;0.70;;
58896;SDS011;44677;52.378;10.400;2024-03-29T13:24:20;1.10;;;0.50;;
58896;SDS011;44677;52.378;10.400;2024-03-29T13:26:45;0.60;;;0.60;;
58896;SDS011;44677;52.378;10.400;2024-03-29T13:29:11;0.50;;;0.50;;
58896;SDS011;44677;52.378;10.400;2024-03-29T13:31:39;0.90;;;0.70;;
58896;SDS011;44677;52.378;10.400;2024-03-29T13:34:04;0.80;;;0.80;;
58896;SDS011;44677;52.378;10.400;2024-03-29T13:36:40;0.60;;;0.40;;
58896;SDS011;44677;52.378;10.400;2024-03-29T13:39:07;0.70;;;0.70;;
58896;SDS011;44677;52.378;10.400;2024-03-29T13:41:33;0.50;;;0.50;;
58896;SDS011;44677;52.378;10.400;2024-03-29T13:44:02;0.70;;;0.60;;
58896;SDS011;44677;52.378;10.400;2024-03-29T13:46:34;0.70;;;0.70;;
58896;SDS011;44677;52.378;10.400;2024-03-29T13:49:01;0.70;;;0.70;;
58896;SDS011;44677;52.378;10.400;2024-03-29T13:51:27;0.80;;;0.80;;
58896;SDS011;44677;52.378;10.400;2024-03-29T13:53:53;0.80;;;0.70;;
58896;SDS011;44677;52.378;10.400;2024-03-29T13:56:22;1.30;;;1.20;;
58896;SDS011;44677;52.378;10.400;2024-03-29T13:58:47;0.60;;;0.60;;
58896;SDS011;44677;52.378;10.400;2024-03-29T14:01:13;1.20;;;0.90;;
58896;SDS011;44677;52.378;10.400;2024-03-29T14:03:39;0.70;;;0.70;;
58896;SDS011;44677;52.378;10.400;2024-03-29T14:06:05;0.60;;;0.50;;
58896;SDS011;44677;52.378;10.400;2024-03-29T14:08:31;0.70;;;0.70;;
58896;SDS011;44677;52.378;10.400;2024-03-29T14:11:00;0.70;;;0.50;;
58896;SDS011;44677;52.378;10.400;2024-03-29T14:13:26;0.70;;;0.70;;
58896;SDS011;44677;52.378;10.400;2024-03-29T14:15:52;0.70;;;0.70;;
58896;SDS011;44677;52.378;10.400;2024-03-29T14:18:17;0.60;;;0.60;;
58896;SDS011;44677;52.378;10.400;2024-03-29T14:20:43;1.50;;;0.90;;
58896;SDS011;44677;52.378;10.400;2024-03-29T14:23:09;1.40;;;0.50;;
58896;SDS011;44677;52.378;10.400;2024-03-29T14:25:38;1.80;;;1.20;;
58896;SDS011;44677;52.378;10.400;2024-03-29T14:28:03;1.20;;;0.70;;
58896;SDS011;44677;52.378;10.400;2024-03-29T14:30:29;1.10;;;0.50;;
58896;SDS011;44677;52.378;10.400;2024-03-29T14:32:55;0.50;;;0.50;;
58896;SDS011;44677;52.378;10.400;2024-03-29T14:35:21;1.40;;;0.80;;
58896;SDS011;44677;52.378;10.400;2024-03-29T14:37:47;0.70;;;0.70;;
58896;SDS011;44677;52.378;10.400;2024-03-29T14:40:13;1.60;;;1.00;;
58896;SDS011;44677;52.378;10.400;2024-03-29T14:42:42;1.30;;;0.80;;
58896;SDS011;44677;52.378;10.400;2024-03-29T14:45:08;1.30;;;0.90;;
58896;SDS011;44677;52.378;10.400;2024-03-29T14:47:36;1.10;;;0.70;;
58896;SDS011;44677;52.378;10.400;2024-03-29T14:50:03;0.60;;;0.60;;